sensor_id;sensor_type;location;lat;lon;timestamp;temperature;humidity
59148;DHT22;44930;52.878;6.168;2023-11-21T00:00:05;9.40;99.90
59148;DHT22;44930;52.878;6.168;2023-11-21T00:02:36;9.10;99.90
59148;DHT22;44930;52.878;6.168;2023-11-21T00:05:03;9.40;99.90
59148;DHT22;44930;52.878;6.168;2023-11-21T00:07:30;9.30;99.90
59148;DHT22;44930;52.878;6.168;2023-11-21T00:09:55;9.30;99.90
59148;DHT22;44930;52.878;6.168;2023-11-21T00:12:21;9.30;99.90
59148;DHT22;44930;52.878;6.168;2023-11-21T00:14:47;9.40;99.90
59148;DHT22;44930;52.878;6.168;2023-11-21T00:17:12;9.40;99.90
59148;DHT22;44930;52.878;6.168;2023-11-21T00:19:38;9.40;99.90
59148;DHT22;44930;52.878;6.168;2023-11-21T00:24:31;9.40;99.90
59148;DHT22;44930;52.878;6.168;2023-11-21T00:26:57;9.40;99.90
59148;DHT22;44930;52.878;6.168;2023-11-21T00:36:40;9.40;99.90
59148;DHT22;44930;52.878;6.168;2023-11-21T00:39:06;9.40;99.90
59148;DHT22;44930;52.878;6.168;2023-11-21T00:41:32;9.50;99.90
59148;DHT22;44930;52.878;6.168;2023-11-21T00:43:58;9.40;99.90
59148;DHT22;44930;52.878;6.168;2023-11-21T00:46:25;9.40;99.90
59148;DHT22;44930;52.878;6.168;2023-11-21T00:48:52;9.40;99.90
59148;DHT22;44930;52.878;6.168;2023-11-21T00:51:19;9.40;99.90
59148;DHT22;44930;52.878;6.168;2023-11-21T00:53:45;9.40;99.90
59148;DHT22;44930;52.878;6.168;2023-11-21T00:56:10;9.40;99.90
59148;DHT22;44930;52.878;6.168;2023-11-21T00:58:36;9.40;99.90
59148;DHT22;44930;52.878;6.168;2023-11-21T01:01:02;9.40;99.90
59148;DHT22;44930;52.878;6.168;2023-11-21T01:03:28;9.40;99.90
59148;DHT22;44930;52.878;6.168;2023-11-21T01:05:54;9.40;99.90
59148;DHT22;44930;52.878;6.168;2023-11-21T01:08:19;9.30;99.90
59148;DHT22;44930;52.878;6.168;2023-11-21T01:13:11;9.50;99.90
59148;DHT22;44930;52.878;6.168;2023-11-21T01:15:37;9.50;99.90
59148;DHT22;44930;52.878;6.168;2023-11-21T01:18:02;9.40;99.90
59148;DHT22;44930;52.878;6.168;2023-11-21T01:20:29;9.40;99.90
59148;DHT22;44930;52.878;6.168;2023-11-21T01:22:54;9.40;99.90
59148;DHT22;44930;52.878;6.168;2023-11-21T01:25:20;9.50;99.90
59148;DHT22;44930;52.878;6.168;2023-11-21T01:27:46;9.40;99.90
59148;DHT22;44930;52.878;6.168;2023-11-21T01:35:05;9.50;99.90
59148;DHT22;44930;52.878;6.168;2023-11-21T01:37:32;8.90;99.90
59148;DHT22;44930;52.878;6.168;2023-11-21T01:42:25;9.40;99.90
59148;DHT22;44930;52.878;6.168;2023-11-21T01:44:51;9.40;99.90
59148;DHT22;44930;52.878;6.168;2023-11-21T01:47:17;9.40;99.90
59148;DHT22;44930;52.878;6.168;2023-11-21T01:49:44;9.40;99.90
59148;DHT22;44930;52.878;6.168;2023-11-21T01:52:10;9.40;99.90
59148;DHT22;44930;52.878;6.168;2023-11-21T01:54:37;9.40;99.90
59148;DHT22;44930;52.878;6.168;2023-11-21T01:57:04;9.50;99.90
59148;DHT22;44930;52.878;6.168;2023-11-21T01:59:36;9.50;99.90
59148;DHT22;44930;52.878;6.168;2023-11-21T02:02:06;9.50;99.90
59148;DHT22;44930;52.878;6.168;2023-11-21T02:04:35;9.30;99.90
59148;DHT22;44930;52.878;6.168;2023-11-21T02:07:05;9.50;99.90
59148;DHT22;44930;52.878;6.168;2023-11-21T02:12:00;9.40;99.90
59148;DHT22;44930;52.878;6.168;2023-11-21T02:14:26;9.60;99.90
59148;DHT22;44930;52.878;6.168;2023-11-21T02:16:54;9.60;99.90
59148;DHT22;44930;52.878;6.168;2023-11-21T02:19:20;9.60;99.90
59148;DHT22;44930;52.878;6.168;2023-11-21T02:24:21;9.50;99.90
59148;DHT22;44930;52.878;6.168;2023-11-21T02:26:48;9.70;99.90
59148;DHT22;44930;52.878;6.168;2023-11-21T02:29:14;9.50;99.90
59148;DHT22;44930;52.878;6.168;2023-11-21T02:31:42;9.60;99.90
59148;DHT22;44930;52.878;6.168;2023-11-21T02:34:17;9.40;99.90
59148;DHT22;44930;52.878;6.168;2023-11-21T02:36:43;9.60;99.90
59148;DHT22;44930;52.878;6.168;2023-11-21T02:39:10;9.70;99.90
59148;DHT22;44930;52.878;6.168;2023-11-21T02:41:37;9.60;99.90
59148;DHT22;44930;52.878;6.168;2023-11-21T02:44:05;9.60;99.90
59148;DHT22;44930;52.878;6.168;2023-11-21T02:46:32;9.60;99.90
59148;DHT22;44930;52.878;6.168;2023-11-21T02:48:59;9.60;99.90
59148;DHT22;44930;52.878;6.168;2023-11-21T02:51:25;9.50;99.90
59148;DHT22;44930;52.878;6.168;2023-11-21T02:56:17;9.60;99.90
59148;DHT22;44930;52.878;6.168;2023-11-21T02:58:43;9.50;99.90
59148;DHT22;44930;52.878;6.168;2023-11-21T03:01:10;9.50;99.90
59148;DHT22;44930;52.878;6.168;2023-11-21T03:03:39;9.60;99.90
59148;DHT22;44930;52.878;6.168;2023-11-21T03:06:06;9.60;99.90
59148;DHT22;44930;52.878;6.168;2023-11-21T03:08:32;9.60;99.90
59148;DHT22;44930;52.878;6.168;2023-11-21T03:10:58;9.60;99.90
59148;DHT22;44930;52.878;6.168;2023-11-21T03:13:24;9.50;99.90
59148;DHT22;44930;52.878;6.168;2023-11-21T03:15:49;9.60;99.90
59148;DHT22;44930;52.878;6.168;2023-11-21T03:25:33;9.60;99.90
59148;DHT22;44930;52.878;6.168;2023-11-21T03:27:59;9.50;99.90
59148;DHT22;44930;52.878;6.168;2023-11-21T03:30:24;9.60;99.90
59148;DHT22;44930;52.878;6.168;2023-11-21T03:32:50;9.60;99.90
59148;DHT22;44930;52.878;6.168;2023-11-21T03:35:16;9.40;99.90
59148;DHT22;44930;52.878;6.168;2023-11-21T03:37:42;9.60;99.90
59148;DHT22;44930;52.878;6.168;2023-11-21T03:40:09;9.60;99.90
59148;DHT22;44930;52.878;6.168;2023-11-21T03:42:35;9.60;99.90
59148;DHT22;44930;52.878;6.168;2023-11-21T03:45:00;9.60;99.90
59148;DHT22;44930;52.878;6.168;2023-11-21T03:47:27;9.60;99.90
59148;DHT22;44930;52.878;6.168;2023-11-21T03:49:53;9.70;99.90
59148;DHT22;44930;52.878;6.168;2023-11-21T03:54:44;9.70;99.90
59148;DHT22;44930;52.878;6.168;2023-11-21T03:57:11;9.70;99.90
59148;DHT22;44930;52.878;6.168;2023-11-21T03:59:39;9.70;99.90
59148;DHT22;44930;52.878;6.168;2023-11-21T04:02:05;9.70;99.90
59148;DHT22;44930;52.878;6.168;2023-11-21T04:04:31;9.70;99.90
59148;DHT22;44930;52.878;6.168;2023-11-21T04:06:56;9.60;99.90
59148;DHT22;44930;52.878;6.168;2023-11-21T04:09:22;9.80;99.90
59148;DHT22;44930;52.878;6.168;2023-11-21T04:11:53;9.70;99.90
59148;DHT22;44930;52.878;6.168;2023-11-21T04:14:19;9.70;99.90
59148;DHT22;44930;52.878;6.168;2023-11-21T04:16:45;9.70;99.90
59148;DHT22;44930;52.878;6.168;2023-11-21T04:24:03;9.70;99.90
59148;DHT22;44930;52.878;6.168;2023-11-21T04:26:29;9.80;99.90
59148;DHT22;44930;52.878;6.168;2023-11-21T04:31:20;9.70;99.90
59148;DHT22;44930;52.878;6.168;2023-11-21T04:33:46;9.60;99.90
59148;DHT22;44930;52.878;6.168;2023-11-21T04:36:12;9.80;99.90
59148;DHT22;44930;52.878;6.168;2023-11-21T04:38:37;9.90;99.90
59148;DHT22;44930;52.878;6.168;2023-11-21T04:41:03;9.70;99.90
59148;DHT22;44930;52.878;6.168;2023-11-21T04:43:29;9.60;99.90
59148;DHT22;44930;52.878;6.168;2023-11-21T04:45:55;9.70;99.90
59148;DHT22;44930;52.878;6.168;2023-11-21T04:48:20;9.70;99.90
59148;DHT22;44930;52.878;6.168;2023-11-21T04:50:46;9.70;99.90
59148;DHT22;44930;52.878;6.168;2023-11-21T04:53:12;9.70;99.90
59148;DHT22;44930;52.878;6.168;2023-11-21T04:55:40;9.60;99.90
59148;DHT22;44930;52.878;6.168;2023-11-21T04:58:07;9.70;99.90
59148;DHT22;44930;52.878;6.168;2023-11-21T05:00:33;9.70;99.90
59148;DHT22;44930;52.878;6.168;2023-11-21T05:05:26;9.70;99.90
59148;DHT22;44930;52.878;6.168;2023-11-21T05:07:52;9.60;99.90
59148;DHT22;44930;52.878;6.168;2023-11-21T05:10:19;9.70;99.90
59148;DHT22;44930;52.878;6.168;2023-11-21T05:12:45;9.70;99.90
59148;DHT22;44930;52.878;6.168;2023-11-21T05:15:14;9.70;99.90
59148;DHT22;44930;52.878;6.168;2023-11-21T05:17:41;9.60;99.90
59148;DHT22;44930;52.878;6.168;2023-11-21T05:20:10;9.60;99.90
59148;DHT22;44930;52.878;6.168;2023-11-21T05:22:37;9.60;99.90
59148;DHT22;44930;52.878;6.168;2023-11-21T05:25:03;9.60;99.90
59148;DHT22;44930;52.878;6.168;2023-11-21T05:27:32;9.50;99.90
59148;DHT22;44930;52.878;6.168;2023-11-21T05:29:57;9.60;99.90
59148;DHT22;44930;52.878;6.168;2023-11-21T05:32:24;9.70;99.90
59148;DHT22;44930;52.878;6.168;2023-11-21T05:34:50;9.60;99.90
59148;DHT22;44930;52.878;6.168;2023-11-21T05:37:15;9.60;99.90
59148;DHT22;44930;52.878;6.168;2023-11-21T05:39:41;9.70;99.90
59148;DHT22;44930;52.878;6.168;2023-11-21T05:42:06;9.70;99.90
59148;DHT22;44930;52.878;6.168;2023-11-21T05:44:34;9.80;99.90
59148;DHT22;44930;52.878;6.168;2023-11-21T05:49:26;9.60;99.90
59148;DHT22;44930;52.878;6.168;2023-11-21T05:54:19;9.70;99.90
59148;DHT22;44930;52.878;6.168;2023-11-21T05:59:12;9.60;99.90
59148;DHT22;44930;52.878;6.168;2023-11-21T06:01:37;9.80;99.90
59148;DHT22;44930;52.878;6.168;2023-11-21T06:04:04;9.60;99.90
59148;DHT22;44930;52.878;6.168;2023-11-21T06:06:30;9.60;99.90
59148;DHT22;44930;52.878;6.168;2023-11-21T06:16:15;9.60;99.90
59148;DHT22;44930;52.878;6.168;2023-11-21T06:18:45;9.50;99.90
59148;DHT22;44930;52.878;6.168;2023-11-21T06:21:11;9.50;99.90
59148;DHT22;44930;52.878;6.168;2023-11-21T06:23:36;9.60;99.90
59148;DHT22;44930;52.878;6.168;2023-11-21T06:26:02;9.50;99.90
59148;DHT22;44930;52.878;6.168;2023-11-21T06:28:27;9.50;99.90
59148;DHT22;44930;52.878;6.168;2023-11-21T06:30:53;9.50;99.90
59148;DHT22;44930;52.878;6.168;2023-11-21T06:33:19;9.40;99.90
59148;DHT22;44930;52.878;6.168;2023-11-21T06:35:44;9.60;99.90
59148;DHT22;44930;52.878;6.168;2023-11-21T06:45:30;9.40;99.90
59148;DHT22;44930;52.878;6.168;2023-11-21T06:50:21;9.50;99.90
59148;DHT22;44930;52.878;6.168;2023-11-21T06:57:41;9.40;99.90
59148;DHT22;44930;52.878;6.168;2023-11-21T07:00:07;9.50;99.90
59148;DHT22;44930;52.878;6.168;2023-11-21T07:02:34;9.50;99.90
59148;DHT22;44930;52.878;6.168;2023-11-21T07:05:00;9.40;99.90
59148;DHT22;44930;52.878;6.168;2023-11-21T07:07:26;9.30;99.90
59148;DHT22;44930;52.878;6.168;2023-11-21T07:09:52;9.40;99.90
59148;DHT22;44930;52.878;6.168;2023-11-21T07:14:44;9.40;99.90
59148;DHT22;44930;52.878;6.168;2023-11-21T07:17:11;9.50;99.90
59148;DHT22;44930;52.878;6.168;2023-11-21T07:19:38;9.60;99.90
59148;DHT22;44930;52.878;6.168;2023-11-21T07:22:03;9.50;99.90
59148;DHT22;44930;52.878;6.168;2023-11-21T07:24:31;9.50;99.90
59148;DHT22;44930;52.878;6.168;2023-11-21T07:29:24;9.50;99.90
59148;DHT22;44930;52.878;6.168;2023-11-21T07:39:13;9.50;99.90
59148;DHT22;44930;52.878;6.168;2023-11-21T07:41:41;9.50;99.90
59148;DHT22;44930;52.878;6.168;2023-11-21T07:44:14;9.50;99.90
59148;DHT22;44930;52.878;6.168;2023-11-21T07:49:05;9.50;99.90
59148;DHT22;44930;52.878;6.168;2023-11-21T08:01:15;9.60;99.90
59148;DHT22;44930;52.878;6.168;2023-11-21T08:03:41;9.70;99.90
59148;DHT22;44930;52.878;6.168;2023-11-21T08:06:07;9.60;99.90
59148;DHT22;44930;52.878;6.168;2023-11-21T08:08:33;9.60;99.90
59148;DHT22;44930;52.878;6.168;2023-11-21T08:10:58;9.60;99.90
59148;DHT22;44930;52.878;6.168;2023-11-21T08:15:56;9.60;99.90
59148;DHT22;44930;52.878;6.168;2023-11-21T08:18:22;9.60;99.90
59148;DHT22;44930;52.878;6.168;2023-11-21T08:20:48;9.60;99.90
59148;DHT22;44930;52.878;6.168;2023-11-21T08:23:17;9.40;99.90
59148;DHT22;44930;52.878;6.168;2023-11-21T08:25:43;9.80;99.90
59148;DHT22;44930;52.878;6.168;2023-11-21T08:28:09;9.70;99.90
59148;DHT22;44930;52.878;6.168;2023-11-21T08:30:35;9.60;99.90
59148;DHT22;44930;52.878;6.168;2023-11-21T08:33:01;9.60;99.90
59148;DHT22;44930;52.878;6.168;2023-11-21T08:35:28;9.50;99.90
59148;DHT22;44930;52.878;6.168;2023-11-21T08:37:54;9.50;99.90
59148;DHT22;44930;52.878;6.168;2023-11-21T08:42:47;9.50;99.90
59148;DHT22;44930;52.878;6.168;2023-11-21T08:45:14;9.40;99.90
59148;DHT22;44930;52.878;6.168;2023-11-21T08:47:39;9.60;99.90
59148;DHT22;44930;52.878;6.168;2023-11-21T08:50:06;9.40;99.90
59148;DHT22;44930;52.878;6.168;2023-11-21T08:57:28;9.40;99.90
59148;DHT22;44930;52.878;6.168;2023-11-21T08:59:53;9.40;99.90
59148;DHT22;44930;52.878;6.168;2023-11-21T09:02:25;9.40;99.90
59148;DHT22;44930;52.878;6.168;2023-11-21T09:04:51;9.30;99.90
59148;DHT22;44930;52.878;6.168;2023-11-21T09:07:18;9.40;99.90
59148;DHT22;44930;52.878;6.168;2023-11-21T09:09:49;9.40;99.90
59148;DHT22;44930;52.878;6.168;2023-11-21T09:12:15;9.30;99.90
59148;DHT22;44930;52.878;6.168;2023-11-21T09:14:42;9.40;99.90
59148;DHT22;44930;52.878;6.168;2023-11-21T09:17:09;9.30;99.90
59148;DHT22;44930;52.878;6.168;2023-11-21T09:19:38;9.50;99.90
59148;DHT22;44930;52.878;6.168;2023-11-21T09:22:04;9.30;99.90
59148;DHT22;44930;52.878;6.168;2023-11-21T09:24:33;9.20;99.90
59148;DHT22;44930;52.878;6.168;2023-11-21T09:26:59;9.30;99.90
59148;DHT22;44930;52.878;6.168;2023-11-21T09:29:28;9.20;99.90
59148;DHT22;44930;52.878;6.168;2023-11-21T09:31:54;9.20;99.90
59148;DHT22;44930;52.878;6.168;2023-11-21T09:34:21;9.20;99.90
59148;DHT22;44930;52.878;6.168;2023-11-21T09:39:13;9.30;99.90
59148;DHT22;44930;52.878;6.168;2023-11-21T09:41:51;9.00;99.90
59148;DHT22;44930;52.878;6.168;2023-11-21T09:47:24;9.30;99.90
59148;DHT22;44930;52.878;6.168;2023-11-21T09:49:49;9.60;99.90
59148;DHT22;44930;52.878;6.168;2023-11-21T09:52:27;9.30;99.90
59148;DHT22;44930;52.878;6.168;2023-11-21T09:54:54;9.40;99.90
59148;DHT22;44930;52.878;6.168;2023-11-21T09:57:23;9.10;99.90
59148;DHT22;44930;52.878;6.168;2023-11-21T09:59:53;9.40;99.90
59148;DHT22;44930;52.878;6.168;2023-11-21T10:02:26;9.30;99.90
59148;DHT22;44930;52.878;6.168;2023-11-21T10:04:54;9.40;99.90
59148;DHT22;44930;52.878;6.168;2023-11-21T10:07:20;9.30;99.90
59148;DHT22;44930;52.878;6.168;2023-11-21T10:09:47;9.30;99.90
59148;DHT22;44930;52.878;6.168;2023-11-21T10:17:10;9.20;99.90
59148;DHT22;44930;52.878;6.168;2023-11-21T10:19:38;9.20;99.90
59148;DHT22;44930;52.878;6.168;2023-11-21T10:24:32;9.30;99.90
59148;DHT22;44930;52.878;6.168;2023-11-21T10:26:58;9.30;99.90
59148;DHT22;44930;52.878;6.168;2023-11-21T10:29:24;9.30;99.90
59148;DHT22;44930;52.878;6.168;2023-11-21T10:31:52;9.40;99.90
59148;DHT22;44930;52.878;6.168;2023-11-21T10:34:20;9.10;99.90
59148;DHT22;44930;52.878;6.168;2023-11-21T10:36:46;9.30;99.90
59148;DHT22;44930;52.878;6.168;2023-11-21T10:39:19;9.30;99.90
59148;DHT22;44930;52.878;6.168;2023-11-21T10:41:46;9.20;99.90
59148;DHT22;44930;52.878;6.168;2023-11-21T10:49:22;9.20;99.90
59148;DHT22;44930;52.878;6.168;2023-11-21T10:54:21;9.40;99.90
59148;DHT22;44930;52.878;6.168;2023-11-21T10:56:49;9.20;99.90
59148;DHT22;44930;52.878;6.168;2023-11-21T10:59:17;9.20;99.90
59148;DHT22;44930;52.878;6.168;2023-11-21T11:04:11;9.20;99.90
59148;DHT22;44930;52.878;6.168;2023-11-21T11:09:13;9.20;99.90
59148;DHT22;44930;52.878;6.168;2023-11-21T11:19:09;9.30;99.90
59148;DHT22;44930;52.878;6.168;2023-11-21T11:24:59;9.50;99.90
59148;DHT22;44930;52.878;6.168;2023-11-21T11:27:34;9.20;99.90
59148;DHT22;44930;52.878;6.168;2023-11-21T11:30:23;9.30;99.90
59148;DHT22;44930;52.878;6.168;2023-11-21T11:33:06;9.10;99.90
59148;DHT22;44930;52.878;6.168;2023-11-21T11:35:48;9.10;99.90
59148;DHT22;44930;52.878;6.168;2023-11-21T11:38:16;9.20;99.90
59148;DHT22;44930;52.878;6.168;2023-11-21T11:40:46;9.10;99.90
59148;DHT22;44930;52.878;6.168;2023-11-21T11:43:12;9.00;99.90
59148;DHT22;44930;52.878;6.168;2023-11-21T11:48:08;9.20;99.90
59148;DHT22;44930;52.878;6.168;2023-11-21T11:53:15;8.80;99.90
59148;DHT22;44930;52.878;6.168;2023-11-21T11:55:41;8.90;99.90
59148;DHT22;44930;52.878;6.168;2023-11-21T11:58:07;9.00;99.90
59148;DHT22;44930;52.878;6.168;2023-11-21T12:00:34;8.80;99.90
59148;DHT22;44930;52.878;6.168;2023-11-21T12:03:03;9.00;99.90
59148;DHT22;44930;52.878;6.168;2023-11-21T12:08:09;8.90;99.90
59148;DHT22;44930;52.878;6.168;2023-11-21T12:10:38;8.90;99.90
59148;DHT22;44930;52.878;6.168;2023-11-21T12:13:08;8.90;99.90
59148;DHT22;44930;52.878;6.168;2023-11-21T12:15:36;9.00;99.90
59148;DHT22;44930;52.878;6.168;2023-11-21T12:18:02;9.00;99.90
59148;DHT22;44930;52.878;6.168;2023-11-21T12:20:28;9.00;99.90
59148;DHT22;44930;52.878;6.168;2023-11-21T12:25:25;9.10;99.90
59148;DHT22;44930;52.878;6.168;2023-11-21T12:27:55;9.80;99.90
59148;DHT22;44930;52.878;6.168;2023-11-21T12:30:23;9.20;99.90
59148;DHT22;44930;52.878;6.168;2023-11-21T12:32:54;9.40;99.90
59148;DHT22;44930;52.878;6.168;2023-11-21T12:35:24;9.20;99.90
59148;DHT22;44930;52.878;6.168;2023-11-21T12:37:51;9.20;99.90
59148;DHT22;44930;52.878;6.168;2023-11-21T12:40:17;9.10;99.90
59148;DHT22;44930;52.878;6.168;2023-11-21T12:42:44;9.10;99.90
59148;DHT22;44930;52.878;6.168;2023-11-21T12:47:56;9.40;99.90
59148;DHT22;44930;52.878;6.168;2023-11-21T12:50:26;9.70;99.90
59148;DHT22;44930;52.878;6.168;2023-11-21T12:53:02;9.60;99.90
59148;DHT22;44930;52.878;6.168;2023-11-21T12:58:01;9.40;99.90
59148;DHT22;44930;52.878;6.168;2023-11-21T13:03:04;9.20;99.90
59148;DHT22;44930;52.878;6.168;2023-11-21T13:05:35;9.10;99.90
59148;DHT22;44930;52.878;6.168;2023-11-21T13:08:02;9.20;99.90
59148;DHT22;44930;52.878;6.168;2023-11-21T13:10:30;9.10;99.90
59148;DHT22;44930;52.878;6.168;2023-11-21T13:13:05;9.30;99.90
59148;DHT22;44930;52.878;6.168;2023-11-21T13:15:34;9.20;99.90
59148;DHT22;44930;52.878;6.168;2023-11-21T13:18:01;9.20;99.90
59148;DHT22;44930;52.878;6.168;2023-11-21T13:20:28;9.20;99.90
59148;DHT22;44930;52.878;6.168;2023-11-21T13:25:27;9.00;99.90
59148;DHT22;44930;52.878;6.168;2023-11-21T13:27:58;9.30;99.90
59148;DHT22;44930;52.878;6.168;2023-11-21T13:32:59;9.00;99.90
59148;DHT22;44930;52.878;6.168;2023-11-21T13:35:31;9.40;99.90
59148;DHT22;44930;52.878;6.168;2023-11-21T13:38:04;9.30;99.90
59148;DHT22;44930;52.878;6.168;2023-11-21T13:42:59;8.80;99.90
59148;DHT22;44930;52.878;6.168;2023-11-21T13:45:28;8.70;99.90
59148;DHT22;44930;52.878;6.168;2023-11-21T13:47:55;8.80;99.90
59148;DHT22;44930;52.878;6.168;2023-11-21T13:50:26;9.10;99.90
59148;DHT22;44930;52.878;6.168;2023-11-21T13:52:58;9.10;99.90
59148;DHT22;44930;52.878;6.168;2023-11-21T13:57:55;9.10;99.90
59148;DHT22;44930;52.878;6.168;2023-11-21T14:00:21;9.00;99.90
59148;DHT22;44930;52.878;6.168;2023-11-21T14:03:22;8.90;99.90
59148;DHT22;44930;52.878;6.168;2023-11-21T14:10:48;8.90;99.90
59148;DHT22;44930;52.878;6.168;2023-11-21T14:13:23;8.80;99.90
59148;DHT22;44930;52.878;6.168;2023-11-21T14:15:50;8.90;99.90
59148;DHT22;44930;52.878;6.168;2023-11-21T14:18:26;8.80;99.90
59148;DHT22;44930;52.878;6.168;2023-11-21T14:21:04;8.80;99.90
59148;DHT22;44930;52.878;6.168;2023-11-21T14:25:58;8.80;99.90
59148;DHT22;44930;52.878;6.168;2023-11-21T14:28:26;9.00;99.90
59148;DHT22;44930;52.878;6.168;2023-11-21T14:35:44;8.80;99.90
59148;DHT22;44930;52.878;6.168;2023-11-21T14:38:10;8.90;99.90
59148;DHT22;44930;52.878;6.168;2023-11-21T14:40:36;8.80;99.90
59148;DHT22;44930;52.878;6.168;2023-11-21T14:43:02;8.90;99.90
59148;DHT22;44930;52.878;6.168;2023-11-21T14:50:44;8.70;99.90
59148;DHT22;44930;52.878;6.168;2023-11-21T14:53:28;8.50;99.90
59148;DHT22;44930;52.878;6.168;2023-11-21T14:56:19;8.70;99.90
59148;DHT22;44930;52.878;6.168;2023-11-21T14:58:54;8.60;99.90
59148;DHT22;44930;52.878;6.168;2023-11-21T15:01:21;8.50;99.90
59148;DHT22;44930;52.878;6.168;2023-11-21T15:06:28;8.60;99.90
59148;DHT22;44930;52.878;6.168;2023-11-21T15:08:57;8.60;99.90
59148;DHT22;44930;52.878;6.168;2023-11-21T15:11:35;8.60;99.90
59148;DHT22;44930;52.878;6.168;2023-11-21T15:14:03;8.50;99.90
59148;DHT22;44930;52.878;6.168;2023-11-21T15:19:05;8.50;99.90
59148;DHT22;44930;52.878;6.168;2023-11-21T15:21:31;8.50;99.90
59148;DHT22;44930;52.878;6.168;2023-11-21T15:28:51;8.40;99.90
59148;DHT22;44930;52.878;6.168;2023-11-21T15:33:46;8.40;99.90
59148;DHT22;44930;52.878;6.168;2023-11-21T15:36:12;8.50;99.90
59148;DHT22;44930;52.878;6.168;2023-11-21T15:38:39;8.40;99.90
59148;DHT22;44930;52.878;6.168;2023-11-21T15:41:05;8.40;99.90
59148;DHT22;44930;52.878;6.168;2023-11-21T15:48:27;8.40;99.90
59148;DHT22;44930;52.878;6.168;2023-11-21T15:50:53;8.50;99.90
59148;DHT22;44930;52.878;6.168;2023-11-21T15:58:14;8.20;99.90
59148;DHT22;44930;52.878;6.168;2023-11-21T16:00:40;8.20;99.90
59148;DHT22;44930;52.878;6.168;2023-11-21T16:03:07;8.10;99.90
59148;DHT22;44930;52.878;6.168;2023-11-21T16:05:32;8.00;99.90
59148;DHT22;44930;52.878;6.168;2023-11-21T16:10:24;8.10;99.90
59148;DHT22;44930;52.878;6.168;2023-11-21T16:12:49;8.10;99.90
59148;DHT22;44930;52.878;6.168;2023-11-21T16:15:15;8.10;99.90
59148;DHT22;44930;52.878;6.168;2023-11-21T16:17:43;8.10;99.90
59148;DHT22;44930;52.878;6.168;2023-11-21T16:20:09;8.10;99.90
59148;DHT22;44930;52.878;6.168;2023-11-21T16:22:38;8.10;99.90
59148;DHT22;44930;52.878;6.168;2023-11-21T16:25:04;8.20;99.90
59148;DHT22;44930;52.878;6.168;2023-11-21T16:27:32;7.90;99.90
59148;DHT22;44930;52.878;6.168;2023-11-21T16:32:24;8.00;99.90
59148;DHT22;44930;52.878;6.168;2023-11-21T16:34:49;8.00;99.90
59148;DHT22;44930;52.878;6.168;2023-11-21T16:37:15;7.90;99.90
59148;DHT22;44930;52.878;6.168;2023-11-21T16:39:41;7.90;99.90
59148;DHT22;44930;52.878;6.168;2023-11-21T16:42:07;7.80;99.90
59148;DHT22;44930;52.878;6.168;2023-11-21T16:47:00;7.60;99.90
59148;DHT22;44930;52.878;6.168;2023-11-21T16:49:33;7.70;99.90
59148;DHT22;44930;52.878;6.168;2023-11-21T16:51:59;7.70;99.90
59148;DHT22;44930;52.878;6.168;2023-11-21T16:54:28;7.50;99.90
59148;DHT22;44930;52.878;6.168;2023-11-21T16:56:54;7.40;99.90
59148;DHT22;44930;52.878;6.168;2023-11-21T16:59:20;7.40;99.90
59148;DHT22;44930;52.878;6.168;2023-11-21T17:01:46;7.40;99.90
59148;DHT22;44930;52.878;6.168;2023-11-21T17:06:44;7.20;99.90
59148;DHT22;44930;52.878;6.168;2023-11-21T17:09:11;7.10;99.90
59148;DHT22;44930;52.878;6.168;2023-11-21T17:11:39;7.10;99.90
59148;DHT22;44930;52.878;6.168;2023-11-21T17:14:06;6.90;99.90
59148;DHT22;44930;52.878;6.168;2023-11-21T17:16:32;6.80;99.90
59148;DHT22;44930;52.878;6.168;2023-11-21T17:18:58;6.90;99.90
59148;DHT22;44930;52.878;6.168;2023-11-21T17:21:24;6.80;99.90
59148;DHT22;44930;52.878;6.168;2023-11-21T17:23:50;6.80;99.90
59148;DHT22;44930;52.878;6.168;2023-11-21T17:26:16;7.00;99.90
59148;DHT22;44930;52.878;6.168;2023-11-21T17:28:43;6.80;99.90
59148;DHT22;44930;52.878;6.168;2023-11-21T17:31:08;6.70;99.90
59148;DHT22;44930;52.878;6.168;2023-11-21T17:33:35;6.70;99.90
59148;DHT22;44930;52.878;6.168;2023-11-21T17:36:01;6.70;99.90
59148;DHT22;44930;52.878;6.168;2023-11-21T17:38:26;6.80;99.90
59148;DHT22;44930;52.878;6.168;2023-11-21T17:43:18;6.60;99.90
59148;DHT22;44930;52.878;6.168;2023-11-21T17:48:10;6.60;99.90
59148;DHT22;44930;52.878;6.168;2023-11-21T17:50:38;6.50;99.90
59148;DHT22;44930;52.878;6.168;2023-11-21T17:53:05;6.70;99.90
59148;DHT22;44930;52.878;6.168;2023-11-21T17:57:57;6.30;99.90
59148;DHT22;44930;52.878;6.168;2023-11-21T18:00:23;6.20;99.90
59148;DHT22;44930;52.878;6.168;2023-11-21T18:02:54;6.30;99.90
59148;DHT22;44930;52.878;6.168;2023-11-21T18:05:20;6.20;99.90
59148;DHT22;44930;52.878;6.168;2023-11-21T18:07:51;6.20;99.90
59148;DHT22;44930;52.878;6.168;2023-11-21T18:10:17;6.40;99.90
59148;DHT22;44930;52.878;6.168;2023-11-21T18:12:43;6.00;99.90
59148;DHT22;44930;52.878;6.168;2023-11-21T18:15:09;6.10;99.90
59148;DHT22;44930;52.878;6.168;2023-11-21T18:17:35;5.90;99.90
59148;DHT22;44930;52.878;6.168;2023-11-21T18:20:01;6.00;99.90
59148;DHT22;44930;52.878;6.168;2023-11-21T18:22:26;6.00;99.90
59148;DHT22;44930;52.878;6.168;2023-11-21T18:24:53;5.70;99.90
59148;DHT22;44930;52.878;6.168;2023-11-21T18:27:22;5.50;99.90
59148;DHT22;44930;52.878;6.168;2023-11-21T18:29:56;5.70;99.90
59148;DHT22;44930;52.878;6.168;2023-11-21T18:32:23;5.80;99.90
59148;DHT22;44930;52.878;6.168;2023-11-21T18:34:49;5.70;99.90
59148;DHT22;44930;52.878;6.168;2023-11-21T18:37:15;5.70;99.90
59148;DHT22;44930;52.878;6.168;2023-11-21T18:42:11;5.70;99.90
59148;DHT22;44930;52.878;6.168;2023-11-21T18:44:36;5.70;99.90
59148;DHT22;44930;52.878;6.168;2023-11-21T18:47:05;5.80;99.90
59148;DHT22;44930;52.878;6.168;2023-11-21T18:49:31;5.80;99.90
59148;DHT22;44930;52.878;6.168;2023-11-21T18:52:00;5.80;99.90
59148;DHT22;44930;52.878;6.168;2023-11-21T18:54:28;5.80;99.90
59148;DHT22;44930;52.878;6.168;2023-11-21T18:56:54;5.80;99.90
59148;DHT22;44930;52.878;6.168;2023-11-21T18:59:20;5.80;99.90
59148;DHT22;44930;52.878;6.168;2023-11-21T19:01:46;5.80;99.90
59148;DHT22;44930;52.878;6.168;2023-11-21T19:04:12;5.80;99.90
59148;DHT22;44930;52.878;6.168;2023-11-21T19:06:38;5.90;99.90
59148;DHT22;44930;52.878;6.168;2023-11-21T19:11:29;5.80;99.90
59148;DHT22;44930;52.878;6.168;2023-11-21T19:18:47;5.80;99.90
59148;DHT22;44930;52.878;6.168;2023-11-21T19:21:14;5.90;99.90
59148;DHT22;44930;52.878;6.168;2023-11-21T19:23:45;5.90;99.90
59148;DHT22;44930;52.878;6.168;2023-11-21T19:26:11;5.80;99.90
59148;DHT22;44930;52.878;6.168;2023-11-21T19:31:03;5.70;99.90
59148;DHT22;44930;52.878;6.168;2023-11-21T19:33:32;5.70;99.90
59148;DHT22;44930;52.878;6.168;2023-11-21T19:35:58;5.70;99.90
59148;DHT22;44930;52.878;6.168;2023-11-21T19:38:23;5.70;99.90
59148;DHT22;44930;52.878;6.168;2023-11-21T19:40:49;5.70;99.90
59148;DHT22;44930;52.878;6.168;2023-11-21T19:45:41;5.80;99.90
59148;DHT22;44930;52.878;6.168;2023-11-21T19:48:06;5.80;99.90
59148;DHT22;44930;52.878;6.168;2023-11-21T19:50:34;5.80;99.90